createdAt,value
2018-05-27T00:01:54.656Z,100564.98
2018-05-27T00:04:22.155Z,100557.98
2018-05-27T00:06:49.616Z,100557.73
2018-05-27T00:09:17.099Z,100552.64
2018-05-27T00:11:44.549Z,100553.47
2018-05-27T00:14:12.312Z,100551.02
2018-05-27T00:16:39.759Z,100552.22
2018-05-27T00:19:07.217Z,100547.02
2018-05-27T00:21:34.696Z,100545.19
2018-05-27T00:24:02.156Z,100547.20
2018-05-27T00:26:29.631Z,100550.11
2018-05-27T00:28:57.095Z,100554.15
2018-05-27T00:31:24.803Z,100549.83
2018-05-27T00:33:52.267Z,100558.10
2018-05-27T00:36:19.744Z,100559.78
2018-05-27T00:38:47.243Z,100559.73
2018-05-27T00:41:14.700Z,100558.30
2018-05-27T00:43:42.209Z,100561.59
2018-05-27T00:46:09.663Z,100558.52
2018-05-27T00:48:37.149Z,100554.29
2018-05-27T00:51:04.631Z,100550.09
2018-05-27T00:53:43.915Z,100547.59
2018-05-27T00:56:11.368Z,100531.67
2018-05-27T00:58:38.842Z,100535.52
2018-05-27T01:01:06.315Z,100528.03
2018-05-27T01:03:33.788Z,100529.17
2018-05-27T01:06:01.264Z,100537.45
2018-05-27T01:08:28.715Z,100530.95
2018-05-27T01:10:56.208Z,100535.39
2018-05-27T01:13:23.667Z,100541.84
2018-05-27T01:15:51.128Z,100549.77
2018-05-27T01:18:18.661Z,100544.34
2018-05-27T01:20:46.126Z,100546.55
2018-05-27T01:23:13.640Z,100550.58
2018-05-27T01:25:41.115Z,100548.72
2018-05-27T01:28:08.599Z,100553.38
2018-05-27T01:30:36.080Z,100544.12
2018-05-27T01:33:03.547Z,100537.11
2018-05-27T01:35:31.164Z,100530.48
2018-05-27T01:37:58.617Z,100524.19
2018-05-27T01:40:26.111Z,100511.96
2018-05-27T01:42:53.572Z,100503.12
2018-05-27T01:45:21.287Z,100493.08
2018-05-27T01:47:48.810Z,100490.04
2018-05-27T01:50:16.264Z,100489.56
2018-05-27T01:52:43.741Z,100492.38
2018-05-27T01:55:11.195Z,100499.92
2018-05-27T01:57:38.697Z,100503.23
2018-05-27T02:00:06.151Z,100509.50
2018-05-27T02:02:33.911Z,100512.69
2018-05-27T02:05:01.369Z,100519.59
2018-05-27T02:07:28.874Z,100524.50
2018-05-27T02:09:56.384Z,100515.52
2018-05-27T02:12:23.843Z,100519.18
2018-05-27T02:14:51.316Z,100508.69
2018-05-27T02:17:18.768Z,100511.74
2018-05-27T02:19:46.681Z,100510.95
2018-05-27T02:22:14.149Z,100503.19
2018-05-27T02:24:41.615Z,100507.55
2018-05-27T02:27:09.091Z,100504.13
2018-05-27T02:29:36.551Z,100501.77
2018-05-27T02:32:04.043Z,100492.97
2018-05-27T02:34:31.495Z,100493.28
2018-05-27T02:36:59.204Z,100487.97
2018-05-27T02:39:26.664Z,100487.85
2018-05-27T02:41:54.116Z,100487.20
2018-05-27T02:44:21.608Z,100485.39
2018-05-27T02:46:49.067Z,100480.27
2018-05-27T02:49:16.563Z,100477.72
2018-05-27T02:51:44.021Z,100480.80
2018-05-27T02:54:12.016Z,100477.82
2018-05-27T02:56:39.471Z,100480.58
2018-05-27T02:59:06.928Z,100483.75
2018-05-27T03:01:34.415Z,100486.98
2018-05-27T03:04:01.871Z,100485.25
2018-05-27T03:06:29.348Z,100482.72
2018-05-27T03:08:56.807Z,100483.09
2018-05-27T03:11:24.476Z,100474.77
2018-05-27T03:13:51.942Z,100475.34
2018-05-27T03:16:19.402Z,100471.00
2018-05-27T03:18:46.880Z,100467.83
2018-05-27T03:21:14.331Z,100472.98
2018-05-27T03:23:41.807Z,100467.37
2018-05-27T03:26:09.264Z,100474.52
2018-05-27T03:28:36.893Z,100473.14
2018-05-27T03:31:04.364Z,100471.37
2018-05-27T03:33:31.823Z,100476.73
2018-05-27T03:35:59.295Z,100474.60
2018-05-27T03:38:26.771Z,100477.86
2018-05-27T03:40:54.247Z,100479.56
2018-05-27T03:43:21.715Z,100478.72
2018-05-27T03:45:49.352Z,100480.02
2018-05-27T03:48:16.806Z,100485.03
2018-05-27T03:50:44.283Z,100485.02
2018-05-27T03:53:11.755Z,100481.20
2018-05-27T03:55:39.212Z,100480.51
2018-05-27T03:58:06.688Z,100488.88
2018-05-27T04:00:34.152Z,100489.67
2018-05-27T04:03:01.746Z,100495.30
2018-05-27T04:05:42.043Z,100495.03
2018-05-27T04:08:21.475Z,100491.36
2018-05-27T04:10:48.939Z,100486.23
2018-05-27T04:13:16.391Z,100487.02
2018-05-27T04:15:43.867Z,100487.15
2018-05-27T04:18:11.320Z,100491.31
2018-05-27T04:20:38.799Z,100485.63
2018-05-27T04:23:06.256Z,100485.58
2018-05-27T04:25:33.960Z,100485.55
2018-05-27T04:28:01.421Z,100488.18
2018-05-27T04:30:28.884Z,100483.60
2018-05-27T04:32:56.368Z,100498.45
2018-05-27T04:35:23.824Z,100503.33
2018-05-27T04:37:51.303Z,100501.73
2018-05-27T04:40:18.760Z,100504.07
2018-05-27T04:42:46.247Z,100502.05
2018-05-27T04:45:13.716Z,100500.97
2018-05-27T04:47:41.193Z,100502.14
2018-05-27T04:50:08.672Z,100500.19
2018-05-27T04:52:36.140Z,100502.48
2018-05-27T04:55:03.619Z,100509.53
2018-05-27T04:57:31.079Z,100513.73
2018-05-27T04:59:58.663Z,100509.62
2018-05-27T05:02:26.115Z,100510.56
2018-05-27T05:04:53.576Z,100514.30
2018-05-27T05:07:21.068Z,100522.34
2018-05-27T05:09:48.571Z,100521.04
2018-05-27T05:12:16.060Z,100527.06
2018-05-27T05:14:43.524Z,100531.01
2018-05-27T05:17:11.286Z,100532.80
2018-05-27T05:19:38.740Z,100535.32
2018-05-27T05:22:06.222Z,100533.77
2018-05-27T05:24:33.683Z,100535.86
2018-05-27T05:27:01.792Z,100531.62
2018-05-27T05:29:29.271Z,100530.96
2018-05-27T05:31:56.727Z,100533.34
2018-05-27T05:34:24.496Z,100534.48
2018-05-27T05:36:51.956Z,100528.86
2018-05-27T05:39:19.419Z,100527.81
2018-05-27T05:41:46.898Z,100521.30
2018-05-27T05:44:14.355Z,100522.18
2018-05-27T05:46:41.847Z,100523.89
2018-05-27T05:49:09.304Z,100524.78
2018-05-27T05:51:36.964Z,100525.42
2018-05-27T05:54:04.460Z,100521.42
2018-05-27T05:56:31.943Z,100520.84
2018-05-27T05:58:59.424Z,100522.52
2018-05-27T06:01:26.876Z,100516.95
2018-05-27T06:03:54.431Z,100513.59
2018-05-27T06:06:21.901Z,100517.63
2018-05-27T06:08:49.617Z,100520.30
2018-05-27T06:11:17.383Z,100514.77
2018-05-27T06:13:44.835Z,100516.98
2018-05-27T06:16:12.316Z,100520.02
2018-05-27T06:18:39.775Z,100521.78
2018-05-27T06:21:07.252Z,100526.02
2018-05-27T06:23:34.794Z,100523.60
2018-05-27T06:26:02.641Z,100519.97
2018-05-27T06:28:30.107Z,100524.19
2018-05-27T06:30:57.563Z,100519.08
2018-05-27T06:33:25.040Z,100519.14
2018-05-27T06:35:52.544Z,100523.06
2018-05-27T06:38:20.012Z,100518.75
2018-05-27T06:40:47.467Z,100517.67
2018-05-27T06:43:15.136Z,100512.91
2018-05-27T06:45:42.618Z,100520.30
2018-05-27T06:48:10.126Z,100535.61
2018-05-27T06:50:37.612Z,100533.54
2018-05-27T06:53:05.060Z,100533.00
2018-05-27T06:55:32.532Z,100526.27
2018-05-27T06:58:00.062Z,100531.21
2018-05-27T07:00:27.619Z,100528.46
2018-05-27T07:02:55.197Z,100526.13
2018-05-27T07:05:22.651Z,100530.30
2018-05-27T07:07:50.138Z,100531.01
2018-05-27T07:10:17.588Z,100527.20
2018-05-27T07:12:45.056Z,100526.48
2018-05-27T07:15:12.509Z,100530.44
2018-05-27T07:17:40.011Z,100530.94
2018-05-27T07:20:07.455Z,100539.05
2018-05-27T07:22:34.904Z,100536.72
2018-05-27T07:25:02.383Z,100539.98
2018-05-27T07:27:29.829Z,100535.23
2018-05-27T07:29:57.306Z,100529.92
2018-05-27T07:32:24.751Z,100529.17
2018-05-27T07:34:52.296Z,100526.17
2018-05-27T07:37:19.744Z,100529.98
2018-05-27T07:39:47.210Z,100526.08
2018-05-27T07:42:14.687Z,100526.30
2018-05-27T07:44:42.139Z,100532.59
2018-05-27T07:47:09.624Z,100526.19
2018-05-27T07:49:37.073Z,100522.88
2018-05-27T07:52:04.592Z,100527.75
2018-05-27T07:54:32.042Z,100525.16
2018-05-27T07:56:59.503Z,100527.42
2018-05-27T07:59:27.003Z,100525.66
2018-05-27T08:01:54.528Z,100521.09
2018-05-27T08:04:22.035Z,100527.08
2018-05-27T08:06:49.484Z,100525.67
2018-05-27T08:09:17.183Z,100527.86
2018-05-27T08:11:44.640Z,100519.39
2018-05-27T08:14:12.091Z,100517.63
2018-05-27T08:16:39.559Z,100512.92
2018-05-27T08:19:07.004Z,100515.20
2018-05-27T08:21:34.468Z,100510.41
2018-05-27T08:24:01.960Z,100512.18
2018-05-27T08:26:29.691Z,100510.25
2018-05-27T08:28:57.141Z,100506.81
2018-05-27T08:31:24.604Z,100503.30
2018-05-27T08:33:52.079Z,100500.63
2018-05-27T08:36:19.544Z,100504.63
2018-05-27T08:38:47.040Z,100510.63
2018-05-27T08:41:14.495Z,100517.74
2018-05-27T08:43:42.168Z,100519.05
2018-05-27T08:46:09.619Z,100516.69
2018-05-27T08:48:37.196Z,100517.58
2018-05-27T08:51:04.680Z,100519.22
2018-05-27T08:53:32.140Z,100520.41
2018-05-27T08:55:59.611Z,100529.67
2018-05-27T08:58:27.098Z,100532.52
2018-05-27T09:00:54.775Z,100532.55
2018-05-27T09:03:22.223Z,100535.61
2018-05-27T09:05:49.688Z,100538.41
2018-05-27T09:08:17.163Z,100540.38
2018-05-27T09:10:44.615Z,100531.68
2018-05-27T09:13:12.135Z,100526.05
2018-05-27T09:15:39.588Z,100533.40
2018-05-27T09:18:07.224Z,100531.42
2018-05-27T09:20:34.676Z,100534.17
2018-05-27T09:23:02.143Z,100530.48
2018-05-27T09:25:29.622Z,100537.06
2018-05-27T09:27:57.082Z,100537.61
2018-05-27T09:30:24.568Z,100531.84
2018-05-27T09:32:52.018Z,100541.36
2018-05-27T09:35:19.580Z,100534.49
2018-05-27T09:37:47.047Z,100532.87
2018-05-27T09:40:14.507Z,100533.10
2018-05-27T09:42:41.984Z,100524.73
2018-05-27T09:45:09.452Z,100533.47
2018-05-27T09:47:36.955Z,100526.66
2018-05-27T09:50:04.395Z,100523.14
2018-05-27T09:52:32.147Z,100520.77
2018-05-27T09:54:59.613Z,100526.31
2018-05-27T09:57:27.060Z,100529.95
2018-05-27T09:59:54.592Z,100528.48
2018-05-27T10:02:21.993Z,100524.20
2018-05-27T10:04:49.459Z,100521.97
2018-05-27T10:07:16.946Z,100515.86
2018-05-27T10:09:44.748Z,100514.22
2018-05-27T10:12:12.196Z,100513.12
2018-05-27T10:14:39.662Z,100507.80
2018-05-27T10:17:07.136Z,100503.33
2018-05-27T10:19:34.586Z,100498.45
2018-05-27T10:22:02.055Z,100499.66
2018-05-27T10:24:29.516Z,100500.73
2018-05-27T10:26:57.152Z,100489.33
2018-05-27T10:29:24.600Z,100490.70
2018-05-27T10:31:52.070Z,100486.03
2018-05-27T10:34:19.539Z,100483.94
2018-05-27T10:36:47.070Z,100483.91
2018-05-27T10:39:14.543Z,100477.98
2018-05-27T10:41:42.016Z,100473.55
2018-05-27T10:44:09.628Z,100465.03
2018-05-27T10:46:37.097Z,100469.31
2018-05-27T10:49:04.556Z,100471.37
2018-05-27T10:51:32.024Z,100463.02
2018-05-27T10:53:59.471Z,100460.45
2018-05-27T10:56:26.939Z,100457.48
2018-05-27T10:58:54.392Z,100452.13
2018-05-27T11:01:21.875Z,100448.59
2018-05-27T11:03:49.343Z,100441.30
2018-05-27T11:06:16.824Z,100444.92
2018-05-27T11:08:44.298Z,100448.34
2018-05-27T11:11:11.759Z,100436.75
2018-05-27T11:13:39.235Z,100436.27
2018-05-27T11:16:06.711Z,100443.76
2018-05-27T11:18:34.155Z,100436.94
2018-05-27T11:21:01.635Z,100433.34
2018-05-27T11:23:29.084Z,100434.08
2018-05-27T11:25:56.656Z,100436.58
2018-05-27T11:28:24.128Z,100430.98
2018-05-27T11:30:51.579Z,100433.47
2018-05-27T11:33:19.052Z,100431.48
2018-05-27T11:35:46.509Z,100423.02
2018-05-27T11:38:13.999Z,100423.18
2018-05-27T11:40:41.460Z,100422.88
2018-05-27T11:43:08.908Z,100418.15
2018-05-27T11:45:36.376Z,100421.88
2018-05-27T11:48:03.836Z,100409.22
2018-05-27T11:50:31.427Z,100412.83
2018-05-27T11:52:58.884Z,100416.27
2018-05-27T11:55:26.335Z,100409.68
2018-05-27T11:57:53.804Z,100407.98
2018-05-27T12:00:21.255Z,100404.02
2018-05-27T12:02:49.064Z,100403.69
2018-05-27T12:05:16.524Z,100400.79
2018-05-27T12:07:43.987Z,100406.06
2018-05-27T12:10:11.452Z,100399.73
2018-05-27T12:12:38.915Z,100404.39
2018-05-27T12:15:06.474Z,100393.34
2018-05-27T12:17:33.969Z,100388.02
2018-05-27T12:20:01.452Z,100384.02
2018-05-27T12:22:28.908Z,100384.30
2018-05-27T12:24:56.361Z,100377.75
2018-05-27T12:27:23.832Z,100377.25
2018-05-27T12:29:51.297Z,100375.35
2018-05-27T12:32:18.772Z,100372.03
2018-05-27T12:34:46.219Z,100375.95
2018-05-27T12:37:13.736Z,100378.19
2018-05-27T12:39:41.187Z,100376.20
2018-05-27T12:42:08.643Z,100368.00
2018-05-27T12:44:36.134Z,100366.22
2018-05-27T12:47:03.591Z,100363.13
2018-05-27T12:49:31.060Z,100361.98
2018-05-27T12:51:58.548Z,100360.72
2018-05-27T12:54:26.144Z,100359.45
2018-05-27T12:56:53.623Z,100360.70
2018-05-27T12:59:21.080Z,100355.79
2018-05-27T13:01:48.551Z,100345.33
2018-05-27T13:04:16.024Z,100343.27
2018-05-27T13:06:43.491Z,100325.41
2018-05-27T13:09:10.935Z,100323.91
2018-05-27T13:11:38.453Z,100320.52
2018-05-27T13:14:05.903Z,100323.67
2018-05-27T13:16:33.390Z,100328.06
2018-05-27T13:19:00.869Z,100323.01
2018-05-27T13:21:28.311Z,100324.89
2018-05-27T13:23:55.803Z,100319.41
2018-05-27T13:26:23.251Z,100321.55
2018-05-27T13:28:50.723Z,100324.24
2018-05-27T13:31:18.172Z,100330.86
2018-05-27T13:33:45.621Z,100330.91
2018-05-27T13:36:13.088Z,100332.75
2018-05-27T13:38:40.539Z,100328.48
2018-05-27T13:41:08.007Z,100319.64
2018-05-27T13:43:35.471Z,100318.03
2018-05-27T13:46:02.963Z,100316.55
2018-05-27T13:48:30.408Z,100309.83
2018-05-27T13:50:57.874Z,100313.07
2018-05-27T13:53:25.345Z,100311.17
2018-05-27T13:55:52.811Z,100320.28
2018-05-27T13:58:20.290Z,100323.06
2018-05-27T14:00:47.780Z,100330.28
2018-05-27T14:03:15.395Z,100327.58
2018-05-27T14:05:42.851Z,100322.86
2018-05-27T14:08:10.304Z,100320.98
2018-05-27T14:10:37.780Z,100331.36
2018-05-27T14:13:05.243Z,100326.80
2018-05-27T14:15:32.711Z,100322.69
2018-05-27T14:18:00.159Z,100314.73
2018-05-27T14:20:27.788Z,100300.79
2018-05-27T14:22:55.248Z,100307.18
2018-05-27T14:25:22.701Z,100314.11
2018-05-27T14:27:50.174Z,100310.32
2018-05-27T14:30:17.623Z,100315.67
2018-05-27T14:32:45.131Z,100322.75
2018-05-27T14:35:12.603Z,100320.84
2018-05-27T14:37:40.484Z,100325.63
2018-05-27T14:40:08.011Z,100335.59
2018-05-27T14:42:35.455Z,100329.01
2018-05-27T14:45:02.928Z,100319.73
2018-05-27T14:47:30.372Z,100310.73
2018-05-27T14:49:57.851Z,100309.01
2018-05-27T14:52:25.304Z,100312.84
2018-05-27T14:54:52.791Z,100320.23
2018-05-27T14:57:20.241Z,100315.22
2018-05-27T14:59:47.693Z,100323.23
2018-05-27T15:02:15.168Z,100310.16
2018-05-27T15:04:42.628Z,100306.42
2018-05-27T15:07:10.106Z,100310.57
2018-05-27T15:09:37.560Z,100317.34
2018-05-27T15:12:05.386Z,100328.00
2018-05-27T15:14:32.868Z,100331.29
2018-05-27T15:17:00.323Z,100322.88
2018-05-27T15:19:27.799Z,100318.18
2018-05-27T15:21:55.244Z,100311.91
2018-05-27T15:24:22.728Z,100308.19
2018-05-27T15:26:50.190Z,100301.22
2018-05-27T15:29:17.671Z,100318.95
2018-05-27T15:31:45.156Z,100345.38
2018-05-27T15:34:12.615Z,100353.99
2018-05-27T15:36:40.088Z,100345.36
2018-05-27T15:39:07.554Z,100342.37
2018-05-27T15:41:35.028Z,100325.30
2018-05-27T15:44:02.476Z,100318.41
2018-05-27T15:46:30.099Z,100312.88
2018-05-27T15:48:57.556Z,100312.09
2018-05-27T15:51:25.012Z,100311.66
2018-05-27T15:53:52.533Z,100320.81
2018-05-27T15:56:19.955Z,100316.86
2018-05-27T15:58:47.428Z,100317.48
2018-05-27T16:01:14.875Z,100315.94
2018-05-27T16:03:42.363Z,100314.49
2018-05-27T16:06:09.812Z,100317.23
2018-05-27T16:08:37.284Z,100320.23
2018-05-27T16:11:04.761Z,100316.47
2018-05-27T16:13:32.212Z,100315.62
2018-05-27T16:15:59.691Z,100321.64
2018-05-27T16:18:27.135Z,100314.61
2018-05-27T16:20:55.042Z,100310.59
2018-05-27T16:23:22.488Z,100298.28
2018-05-27T16:25:49.959Z,100296.78
2018-05-27T16:28:17.428Z,100286.45
2018-05-27T16:30:44.899Z,100282.82
2018-05-27T16:33:12.376Z,100280.81
2018-05-27T16:35:39.833Z,100274.70
2018-05-27T16:38:07.324Z,100277.31
2018-05-27T16:40:34.783Z,100281.01
2018-05-27T16:43:02.233Z,100279.84
2018-05-27T16:45:29.751Z,100286.08
2018-05-27T16:47:57.220Z,100279.70
2018-05-27T16:50:24.683Z,100273.81
2018-05-27T16:52:52.137Z,100274.40
2018-05-27T16:55:19.641Z,100271.23
2018-05-27T16:57:47.095Z,100270.14
2018-05-27T17:00:14.554Z,100264.82
2018-05-27T17:02:42.036Z,100258.61
2018-05-27T17:05:09.495Z,100255.27
2018-05-27T17:07:36.988Z,100248.25
2018-05-27T17:10:04.440Z,100235.38
2018-05-27T17:12:31.915Z,100231.94
2018-05-27T17:14:59.383Z,100227.25
2018-05-27T17:17:26.828Z,100224.45
2018-05-27T17:19:54.311Z,100222.52
2018-05-27T17:22:21.779Z,100211.73
2018-05-27T17:24:49.256Z,100201.56
2018-05-27T17:27:16.733Z,100203.94
2018-05-27T17:29:44.312Z,100195.83
2018-05-27T17:32:11.772Z,100197.36
2018-05-27T17:34:39.227Z,100193.13
2018-05-27T17:37:06.712Z,100186.09
2018-05-27T17:39:34.169Z,100192.84
2018-05-27T17:42:01.651Z,100197.14
2018-05-27T17:44:29.104Z,100204.92
2018-05-27T17:46:56.676Z,100207.80
2018-05-27T17:49:24.124Z,100203.59
2018-05-27T17:51:51.575Z,100203.16
2018-05-27T17:54:19.132Z,100202.43
2018-05-27T17:56:46.561Z,100208.66
2018-05-27T17:59:14.042Z,100205.30
2018-05-27T18:01:41.509Z,100219.34
2018-05-27T18:04:09.050Z,100227.20
2018-05-27T18:06:36.479Z,100232.50
2018-05-27T18:09:03.930Z,100233.98
2018-05-27T18:11:31.461Z,100235.53
2018-05-27T18:13:58.926Z,100230.19
2018-05-27T18:16:26.406Z,100237.27
2018-05-27T18:18:53.856Z,100243.38
2018-05-27T18:21:21.344Z,100252.03
2018-05-27T18:23:48.819Z,100259.00
2018-05-27T18:26:16.315Z,100265.73
2018-05-27T18:28:43.810Z,100265.59
2018-05-27T18:31:11.321Z,100266.73
2018-05-27T18:33:38.803Z,100269.08
2018-05-27T18:36:06.247Z,100270.48
2018-05-27T18:38:33.756Z,100269.24
2018-05-27T18:41:01.215Z,100284.96
2018-05-27T18:43:28.664Z,100286.12
2018-05-27T18:45:56.181Z,100289.52
2018-05-27T18:48:23.644Z,100293.28
2018-05-27T18:50:51.213Z,100289.77
2018-05-27T18:53:18.660Z,100287.56
2018-05-27T18:55:46.175Z,100295.28
2018-05-27T18:58:13.636Z,100302.05
2018-05-27T19:00:41.112Z,100307.66
2018-05-27T19:03:08.599Z,100326.49
2018-05-27T19:05:36.051Z,100330.17
2018-05-27T19:08:03.515Z,100338.92
2018-05-27T19:10:31.026Z,100351.58
2018-05-27T19:12:58.823Z,100352.19
2018-05-27T19:15:26.232Z,100362.95
2018-05-27T19:17:53.685Z,100365.22
2018-05-27T19:20:21.168Z,100366.25
2018-05-27T19:22:48.655Z,100370.28
2018-05-27T19:25:16.142Z,100379.67
2018-05-27T19:27:43.590Z,100381.52
2018-05-27T19:30:11.347Z,100384.95
2018-05-27T19:32:38.825Z,100386.68
2018-05-27T19:35:07.104Z,100396.23
2018-05-27T19:37:34.592Z,100396.33
2018-05-27T19:40:02.609Z,100405.84
2018-05-27T19:42:30.088Z,100413.66
2018-05-27T19:44:58.303Z,100424.67
2018-05-27T19:47:25.784Z,100421.04
2018-05-27T19:49:53.239Z,100421.41
2018-05-27T19:52:20.699Z,100418.85
2018-05-27T19:54:48.202Z,100425.89
2018-05-27T19:57:15.652Z,100429.27
2018-05-27T19:59:43.144Z,100421.52
2018-05-27T20:02:10.623Z,100424.45
2018-05-27T20:04:38.489Z,100424.78
2018-05-27T20:07:05.959Z,100425.75
2018-05-27T20:09:33.420Z,100427.56
2018-05-27T20:12:00.925Z,100429.83
2018-05-27T20:14:28.415Z,100429.95
2018-05-27T20:16:55.909Z,100429.89
2018-05-27T20:19:23.375Z,100437.11
2018-05-27T20:21:51.101Z,100433.08
2018-05-27T20:24:18.603Z,100425.51
2018-05-27T20:26:46.079Z,100421.27
2018-05-27T20:29:13.551Z,100413.45
2018-05-27T20:31:40.999Z,100401.77
2018-05-27T20:34:08.486Z,100401.19
2018-05-27T20:36:35.940Z,100402.93
2018-05-27T20:39:03.439Z,100408.17
2018-05-27T20:41:30.904Z,100402.87
2018-05-27T20:43:58.367Z,100398.86
2018-05-27T20:46:25.842Z,100405.95
2018-05-27T20:48:53.296Z,100416.30
2018-05-27T20:51:20.775Z,100417.95
2018-05-27T20:53:48.236Z,100418.44
2018-05-27T20:56:15.819Z,100414.31
2018-05-27T20:58:43.268Z,100414.30
2018-05-27T21:01:10.744Z,100411.15
2018-05-27T21:03:38.218Z,100414.69
2018-05-27T21:06:05.664Z,100414.20
2018-05-27T21:08:33.132Z,100412.12
2018-05-27T21:11:00.582Z,100409.95
2018-05-27T21:13:28.071Z,100405.02
2018-05-27T21:15:55.523Z,100402.81
2018-05-27T21:18:22.975Z,100402.92
2018-05-27T21:20:50.458Z,100400.95
2018-05-27T21:23:17.908Z,100394.38
2018-05-27T21:25:45.388Z,100392.59
2018-05-27T21:28:12.836Z,100387.12
2018-05-27T21:30:40.364Z,100392.63
2018-05-27T21:33:07.832Z,100387.03
2018-05-27T21:35:35.292Z,100392.33
2018-05-27T21:38:02.804Z,100379.84
2018-05-27T21:40:30.260Z,100373.03
2018-05-27T21:42:57.731Z,100370.69
2018-05-27T21:45:25.252Z,100365.66
2018-05-27T21:47:52.697Z,100357.40
2018-05-27T21:50:20.149Z,100359.88
2018-05-27T21:52:47.595Z,100347.06
2018-05-27T21:55:15.083Z,100359.89
2018-05-27T21:57:42.539Z,100357.86
2018-05-27T22:00:10.016Z,100363.89
2018-05-27T22:02:37.457Z,100369.34
2018-05-27T22:05:04.933Z,100366.52
2018-05-27T22:07:32.380Z,100371.95
2018-05-27T22:09:59.823Z,100373.94
2018-05-27T22:12:27.287Z,100381.40
2018-05-27T22:14:54.773Z,100383.22
2018-05-27T22:17:22.252Z,100382.92
2018-05-27T22:19:49.707Z,100387.56
2018-05-27T22:22:17.436Z,100396.17
2018-05-27T22:24:44.879Z,100395.79
2018-05-27T22:27:12.327Z,100394.64
2018-05-27T22:29:39.805Z,100391.56
2018-05-27T22:32:07.259Z,100393.65
2018-05-27T22:34:34.742Z,100382.98
2018-05-27T22:37:02.188Z,100382.02
2018-05-27T22:39:29.790Z,100378.92
2018-05-27T22:41:57.235Z,100381.48
2018-05-27T22:44:24.679Z,100381.66
2018-05-27T22:46:52.152Z,100374.51
2018-05-27T22:49:19.616Z,100377.81
2018-05-27T22:51:47.089Z,100379.23
2018-05-27T22:54:14.551Z,100377.34
2018-05-27T22:56:42.195Z,100379.59
2018-05-27T22:59:09.651Z,100375.05
2018-05-27T23:01:37.107Z,100382.23
2018-05-27T23:04:04.573Z,100381.66
2018-05-27T23:06:32.036Z,100376.53
2018-05-27T23:08:59.508Z,100366.05
2018-05-27T23:11:26.956Z,100373.98
2018-05-27T23:13:54.456Z,100381.22
2018-05-27T23:16:21.903Z,100385.98
2018-05-27T23:18:49.355Z,100391.00
2018-05-27T23:21:16.823Z,100384.95
2018-05-27T23:23:44.277Z,100392.55
2018-05-27T23:26:11.752Z,100390.19
2018-05-27T23:28:39.204Z,100397.58
2018-05-27T23:31:07.084Z,100397.96
2018-05-27T23:33:34.528Z,100397.44
2018-05-27T23:36:02.047Z,100400.88
2018-05-27T23:38:29.477Z,100403.37
2018-05-27T23:40:56.944Z,100404.67
2018-05-27T23:43:24.431Z,100399.26
2018-05-27T23:45:52.033Z,100401.09
2018-05-27T23:48:19.536Z,100400.39
2018-05-27T23:50:46.984Z,100400.14
2018-05-27T23:53:14.471Z,100393.86
2018-05-27T23:55:41.943Z,100393.69
2018-05-27T23:58:09.383Z,100393.10
